createdAt,value
2023-05-10T00:01:14.337Z,91.09
2023-05-10T00:03:41.448Z,90.42
2023-05-10T00:06:08.091Z,91.07
2023-05-10T00:08:34.632Z,90.86
2023-05-10T00:11:01.274Z,91.34
2023-05-10T00:13:27.781Z,91.91
2023-05-10T00:15:54.291Z,92.06
2023-05-10T00:18:20.780Z,92.29
2023-05-10T00:20:47.454Z,93.04
2023-05-10T00:23:13.901Z,92.42
2023-05-10T00:25:40.400Z,90.59
2023-05-10T00:28:06.999Z,90.32
2023-05-10T00:30:33.537Z,91.76
2023-05-10T00:33:01.894Z,92.05
2023-05-10T00:35:28.410Z,91.16
2023-05-10T00:37:54.896Z,91.52
2023-05-10T00:40:21.799Z,91.64
2023-05-10T00:42:53.321Z,93.00
2023-05-10T00:45:20.248Z,92.96
2023-05-10T00:47:46.968Z,92.67
2023-05-10T00:50:14.101Z,94.21
2023-05-10T00:52:40.946Z,93.91
2023-05-10T00:55:07.769Z,93.71
2023-05-10T00:57:34.277Z,93.09
2023-05-10T01:00:00.819Z,93.07
2023-05-10T01:02:28.287Z,92.96
2023-05-10T01:04:57.105Z,94.01
2023-05-10T01:07:24.319Z,93.33
2023-05-10T01:09:50.802Z,93.17
2023-05-10T01:12:17.373Z,92.55
2023-05-10T01:14:44.086Z,92.42
2023-05-10T01:17:12.121Z,92.88
2023-05-10T01:19:39.112Z,92.04
2023-05-10T01:22:05.679Z,93.05
2023-05-10T01:24:51.234Z,93.37
2023-05-10T01:27:30.103Z,92.43
2023-05-10T01:30:13.665Z,91.30
2023-05-10T01:32:47.394Z,92.66
2023-05-10T01:35:24.010Z,93.39
2023-05-10T01:37:50.624Z,93.57
2023-05-10T01:40:20.616Z,93.17
2023-05-10T01:42:52.606Z,93.02
2023-05-10T01:45:29.889Z,94.99
2023-05-10T01:48:03.620Z,93.91
2023-05-10T01:50:30.990Z,94.17
2023-05-10T01:53:00.040Z,94.12
2023-05-10T01:55:29.500Z,94.23
2023-05-10T01:58:08.996Z,93.98
2023-05-10T02:00:36.514Z,93.65
2023-05-10T02:03:06.529Z,93.45
2023-05-10T02:05:34.199Z,93.68
2023-05-10T02:08:02.528Z,93.66
2023-05-10T02:10:29.954Z,94.87
2023-05-10T02:12:59.485Z,95.56
2023-05-10T02:15:27.438Z,95.47
2023-05-10T02:17:55.673Z,94.90
2023-05-10T02:20:23.348Z,95.01
2023-05-10T02:22:51.661Z,95.31
2023-05-10T02:25:19.173Z,95.44
2023-05-10T02:27:47.475Z,95.34
2023-05-10T02:30:14.564Z,94.75
2023-05-10T02:32:41.924Z,95.00
2023-05-10T02:35:09.332Z,94.59
2023-05-10T02:37:36.704Z,94.38
2023-05-10T02:40:05.742Z,94.03
2023-05-10T02:42:33.728Z,94.08
2023-05-10T02:45:06.289Z,94.15
2023-05-10T02:47:32.945Z,93.85
2023-05-10T02:49:59.824Z,94.78
2023-05-10T02:52:28.396Z,94.69
2023-05-10T02:55:01.754Z,94.26
2023-05-10T02:57:33.497Z,94.76
2023-05-10T03:00:01.163Z,94.73
2023-05-10T03:02:27.960Z,94.31
2023-05-10T03:04:54.568Z,94.04
2023-05-10T03:07:22.342Z,93.83
2023-05-10T03:09:49.997Z,94.18
2023-05-10T03:12:25.411Z,93.71
2023-05-10T03:15:00.713Z,94.25
2023-05-10T03:17:34.814Z,93.34
2023-05-10T03:20:05.253Z,93.59
2023-05-10T03:22:33.359Z,93.69
2023-05-10T03:25:02.560Z,94.48
2023-05-10T03:27:30.934Z,95.61
2023-05-10T03:29:57.920Z,96.61
2023-05-10T03:32:24.818Z,96.56
2023-05-10T03:34:51.403Z,96.00
2023-05-10T03:37:17.861Z,95.79
2023-05-10T03:39:44.362Z,95.02
2023-05-10T03:42:12.847Z,95.40
2023-05-10T03:44:42.604Z,95.30
2023-05-10T03:47:09.222Z,94.65
2023-05-10T03:49:35.878Z,94.77
2023-05-10T03:52:02.878Z,94.75
2023-05-10T03:54:29.381Z,95.24
2023-05-10T03:56:55.886Z,95.62
2023-05-10T03:59:22.755Z,95.74
2023-05-10T04:01:49.266Z,95.63
2023-05-10T04:04:15.780Z,96.31
2023-05-10T04:06:42.391Z,96.36
2023-05-10T04:09:09.318Z,96.54
2023-05-10T04:11:35.840Z,96.08
2023-05-10T04:14:02.343Z,96.40
2023-05-10T04:16:28.968Z,97.08
2023-05-10T04:18:55.486Z,97.25
2023-05-10T04:21:22.165Z,96.74
2023-05-10T04:23:48.637Z,96.47
2023-05-10T04:26:15.139Z,96.09
2023-05-10T04:28:41.684Z,96.36
2023-05-10T04:31:09.084Z,96.06
2023-05-10T04:33:36.367Z,95.74
2023-05-10T04:36:03.452Z,96.33
2023-05-10T04:38:30.280Z,96.12
2023-05-10T04:41:04.637Z,96.04
2023-05-10T04:43:31.105Z,96.16
2023-05-10T04:45:57.954Z,96.01
2023-05-10T04:48:24.523Z,96.62
2023-05-10T04:50:50.962Z,96.83
2023-05-10T04:53:17.584Z,96.95
2023-05-10T04:55:44.062Z,95.78
2023-05-10T04:58:10.533Z,95.66
2023-05-10T05:00:37.198Z,95.30
2023-05-10T05:03:03.864Z,94.86
2023-05-10T05:05:30.356Z,95.06
2023-05-10T05:07:57.262Z,94.86
2023-05-10T05:10:23.799Z,94.49
2023-05-10T05:12:50.554Z,89.88
2023-05-10T05:15:17.637Z,92.09
2023-05-10T05:17:44.472Z,92.08
2023-05-10T05:20:11.197Z,91.70
2023-05-10T05:22:38.201Z,91.48
2023-05-10T05:25:05.235Z,91.41
2023-05-10T05:27:32.324Z,90.02
2023-05-10T05:29:59.189Z,91.15
2023-05-10T05:32:26.098Z,91.31
2023-05-10T05:34:52.685Z,90.86
2023-05-10T05:37:20.216Z,90.51
2023-05-10T05:39:46.835Z,87.91
2023-05-10T05:42:14.091Z,87.65
2023-05-10T05:44:40.714Z,86.69
2023-05-10T05:47:07.436Z,87.14
2023-05-10T05:49:34.360Z,87.56
2023-05-10T05:52:01.698Z,86.27
2023-05-10T05:54:28.561Z,84.63
2023-05-10T05:56:56.295Z,84.57
2023-05-10T05:59:22.805Z,86.28
2023-05-10T06:01:49.936Z,88.36
2023-05-10T06:04:17.122Z,86.19
2023-05-10T06:06:43.828Z,86.25
2023-05-10T06:09:10.737Z,86.08
2023-05-10T06:11:37.381Z,82.74
2023-05-10T06:14:05.476Z,83.60
2023-05-10T06:16:32.188Z,84.62
2023-05-10T06:18:58.633Z,82.26
2023-05-10T06:21:25.204Z,82.85
2023-05-10T06:23:51.628Z,80.15
2023-05-10T06:26:18.066Z,79.20
2023-05-10T06:28:44.540Z,81.69
2023-05-10T06:31:12.847Z,81.48
2023-05-10T06:33:39.341Z,81.48
2023-05-10T06:36:06.007Z,79.88
2023-05-10T06:38:32.481Z,77.09
2023-05-10T06:40:58.969Z,76.03
2023-05-10T06:43:27.183Z,75.99
2023-05-10T06:45:53.690Z,77.32
2023-05-10T06:48:20.214Z,73.31
2023-05-10T06:50:46.673Z,69.93
2023-05-10T06:53:13.136Z,69.17
2023-05-10T06:55:39.871Z,68.69
2023-05-10T06:58:07.129Z,70.25
2023-05-10T07:00:33.752Z,70.77
2023-05-10T07:03:00.326Z,71.20
2023-05-10T07:05:28.853Z,70.69
2023-05-10T07:07:55.571Z,67.69
2023-05-10T07:10:22.103Z,69.80
2023-05-10T07:12:48.774Z,70.79
2023-05-10T07:15:17.091Z,71.65
2023-05-10T07:17:45.798Z,68.20
2023-05-10T07:20:12.911Z,68.30
2023-05-10T07:22:39.463Z,63.75
2023-05-10T07:25:06.345Z,67.71
2023-05-10T07:27:33.513Z,67.09
2023-05-10T07:29:59.982Z,68.41
2023-05-10T07:32:26.656Z,64.48
2023-05-10T07:34:53.306Z,62.27
2023-05-10T07:37:19.731Z,60.94
2023-05-10T07:39:46.262Z,60.37
2023-05-10T07:42:12.690Z,58.07
2023-05-10T07:44:39.165Z,59.20
2023-05-10T07:47:05.688Z,58.16
2023-05-10T07:49:32.229Z,59.40
2023-05-10T07:51:58.807Z,59.42
2023-05-10T07:54:25.326Z,60.34
2023-05-10T07:56:51.929Z,59.57
2023-05-10T07:59:18.680Z,59.22
2023-05-10T08:01:45.466Z,58.52
2023-05-10T08:04:12.663Z,57.18
2023-05-10T08:06:39.309Z,56.62
2023-05-10T08:09:05.797Z,60.02
2023-05-10T08:11:34.308Z,62.52
2023-05-10T08:14:01.506Z,61.81
2023-05-10T08:16:28.517Z,60.82
2023-05-10T08:18:56.398Z,58.35
2023-05-10T08:21:23.142Z,57.87
2023-05-10T08:23:50.105Z,56.43
2023-05-10T08:26:16.632Z,58.67
2023-05-10T08:28:43.192Z,54.38
2023-05-10T08:31:09.702Z,54.17
2023-05-10T08:33:36.276Z,52.92
2023-05-10T08:36:03.001Z,51.13
2023-05-10T08:38:29.466Z,53.38
2023-05-10T08:40:59.734Z,51.59
2023-05-10T08:43:32.682Z,52.89
2023-05-10T08:46:01.549Z,53.18
2023-05-10T08:48:29.910Z,50.05
2023-05-10T08:50:58.977Z,52.33
2023-05-10T08:53:27.526Z,48.86
2023-05-10T08:55:54.395Z,49.52
2023-05-10T08:58:21.354Z,51.00
2023-05-10T09:00:52.109Z,49.41
2023-05-10T09:03:18.794Z,49.08
2023-05-10T09:05:45.823Z,47.69
2023-05-10T09:08:12.978Z,50.59
2023-05-10T09:10:40.524Z,49.23
2023-05-10T09:13:08.104Z,50.49
2023-05-10T09:15:34.566Z,46.38
2023-05-10T09:18:03.323Z,45.46
2023-05-10T09:20:31.772Z,44.26
2023-05-10T09:23:00.182Z,45.62
2023-05-10T09:25:27.110Z,45.32
2023-05-10T09:27:53.606Z,48.41
2023-05-10T09:30:30.212Z,46.16
2023-05-10T09:32:57.868Z,44.57
2023-05-10T09:35:28.016Z,43.53
2023-05-10T09:37:56.939Z,44.27
2023-05-10T09:40:24.844Z,43.33
2023-05-10T09:43:01.803Z,43.32
2023-05-10T09:45:29.033Z,42.45
2023-05-10T09:47:56.371Z,43.78
2023-05-10T09:50:23.203Z,42.91
2023-05-10T09:52:54.448Z,44.11
2023-05-10T09:55:22.738Z,42.45
2023-05-10T09:57:49.985Z,43.56
2023-05-10T10:00:20.199Z,43.80
2023-05-10T10:02:55.245Z,44.64
2023-05-10T10:07:50.260Z,45.15
2023-05-10T10:10:16.927Z,45.55
2023-05-10T10:12:43.720Z,46.10
2023-05-10T10:15:10.912Z,45.96
2023-05-10T10:17:39.188Z,42.63
2023-05-10T10:20:06.080Z,43.82
2023-05-10T10:22:32.555Z,44.33
2023-05-10T10:25:00.210Z,44.80
2023-05-10T10:27:36.022Z,43.84
2023-05-10T10:30:09.078Z,43.66
2023-05-10T10:32:44.886Z,41.52
2023-05-10T10:35:11.546Z,40.47
2023-05-10T10:37:45.559Z,41.07
2023-05-10T10:40:26.325Z,39.31
2023-05-10T10:42:52.937Z,39.33
2023-05-10T10:45:19.697Z,42.50
2023-05-10T10:47:46.293Z,41.78
2023-05-10T10:50:17.254Z,41.56
2023-05-10T10:52:44.804Z,41.23
2023-05-10T10:55:15.634Z,41.98
2023-05-10T10:57:42.421Z,40.83
2023-05-10T11:00:27.975Z,41.00
2023-05-10T11:02:58.929Z,40.13
2023-05-10T11:05:28.557Z,41.55
2023-05-10T11:07:55.863Z,42.38
2023-05-10T11:10:22.764Z,42.78
2023-05-10T11:13:02.221Z,42.56
2023-05-10T11:15:35.974Z,43.82
2023-05-10T11:18:17.725Z,42.29
2023-05-10T11:20:44.346Z,42.24
2023-05-10T11:23:16.463Z,41.22
2023-05-10T11:25:44.398Z,40.78
2023-05-10T11:28:11.335Z,41.23
2023-05-10T11:30:39.482Z,41.88
2023-05-10T11:33:06.167Z,39.53
2023-05-10T11:35:37.642Z,39.48
2023-05-10T11:38:06.356Z,38.51
2023-05-10T11:40:32.842Z,39.27
2023-05-10T11:42:59.708Z,40.75
2023-05-10T11:45:26.724Z,40.20
2023-05-10T11:47:53.229Z,41.41
2023-05-10T11:50:19.898Z,39.37
2023-05-10T11:52:46.441Z,38.47
2023-05-10T11:55:13.174Z,39.64
2023-05-10T11:57:40.366Z,41.16
2023-05-10T12:00:07.154Z,40.48
2023-05-10T12:02:34.452Z,41.49
2023-05-10T12:05:01.555Z,41.59
2023-05-10T12:07:28.230Z,42.28
2023-05-10T12:10:08.331Z,41.43
2023-05-10T12:12:45.100Z,42.92
2023-05-10T12:15:19.693Z,43.74
2023-05-10T12:17:46.814Z,45.16
2023-05-10T12:20:19.571Z,44.08
2023-05-10T12:22:57.815Z,44.74
2023-05-10T12:25:30.764Z,43.00
2023-05-10T12:27:58.674Z,41.74
2023-05-10T12:30:29.451Z,42.14
2023-05-10T12:33:00.867Z,42.88
2023-05-10T12:35:27.408Z,41.37
2023-05-10T12:37:54.038Z,41.92
2023-05-10T12:40:21.194Z,43.46
2023-05-10T12:42:47.760Z,44.48
2023-05-10T12:45:14.350Z,45.73
2023-05-10T12:47:43.780Z,48.66
2023-05-10T12:50:11.299Z,48.30
2023-05-10T12:52:38.159Z,48.93
2023-05-10T12:55:04.853Z,48.70
2023-05-10T12:57:31.680Z,48.83
2023-05-10T12:59:58.136Z,47.85
2023-05-10T13:02:24.766Z,46.88
2023-05-10T13:04:51.468Z,46.13
2023-05-10T13:07:18.035Z,47.07
2023-05-10T13:09:44.663Z,47.07
2023-05-10T13:12:11.158Z,46.41
2023-05-10T13:14:37.760Z,45.59
2023-05-10T13:17:04.285Z,44.92
2023-05-10T13:19:30.829Z,44.00
2023-05-10T13:21:57.364Z,44.75
2023-05-10T13:24:23.837Z,46.25
2023-05-10T13:26:50.475Z,46.79
2023-05-10T13:29:18.932Z,46.36
2023-05-10T13:31:45.634Z,46.87
2023-05-10T13:34:12.249Z,48.63
2023-05-10T13:36:39.119Z,46.96
2023-05-10T13:39:06.374Z,45.66
2023-05-10T13:41:33.075Z,45.45
2023-05-10T13:43:59.506Z,45.46
2023-05-10T13:46:26.074Z,46.18
2023-05-10T13:48:52.605Z,46.23
2023-05-10T13:51:19.144Z,45.62
2023-05-10T13:53:45.865Z,47.49
2023-05-10T13:56:12.404Z,47.78
2023-05-10T13:58:38.976Z,46.28
2023-05-10T14:01:05.926Z,46.75
2023-05-10T14:03:33.642Z,47.50
2023-05-10T14:06:00.311Z,47.05
2023-05-10T14:08:28.019Z,45.70
2023-05-10T14:10:54.491Z,45.01
2023-05-10T14:13:21.043Z,44.38
2023-05-10T14:15:47.550Z,44.13
2023-05-10T14:18:14.055Z,44.82
2023-05-10T14:20:40.882Z,44.66
2023-05-10T14:23:08.360Z,45.08
2023-05-10T14:25:35.870Z,46.03
2023-05-10T14:28:02.414Z,43.87
2023-05-10T14:30:28.954Z,44.63
2023-05-10T14:32:55.473Z,46.32
2023-05-10T14:35:22.440Z,46.40
2023-05-10T14:37:49.014Z,47.17
2023-05-10T14:40:16.282Z,47.24
2023-05-10T14:42:43.216Z,46.65
2023-05-10T14:45:10.721Z,46.72
2023-05-10T14:47:37.309Z,46.58
2023-05-10T14:50:03.902Z,45.45
2023-05-10T14:52:31.770Z,45.37
2023-05-10T14:55:01.307Z,45.96
2023-05-10T14:57:30.503Z,47.12
2023-05-10T14:59:57.576Z,47.39
2023-05-10T15:02:24.505Z,46.42
2023-05-10T15:04:51.849Z,47.54
2023-05-10T15:07:19.334Z,44.42
2023-05-10T15:09:46.088Z,47.17
2023-05-10T15:12:12.622Z,46.57
2023-05-10T15:14:39.089Z,46.41
2023-05-10T15:17:07.241Z,46.75
2023-05-10T15:19:34.313Z,46.26
2023-05-10T15:22:00.871Z,46.98
2023-05-10T15:24:27.392Z,46.28
2023-05-10T15:26:53.958Z,46.75
2023-05-10T15:29:23.508Z,46.75
2023-05-10T15:31:51.133Z,46.76
2023-05-10T15:34:18.290Z,47.50
2023-05-10T15:36:45.137Z,46.75
2023-05-10T15:39:11.936Z,45.17
2023-05-10T15:41:38.396Z,45.01
2023-05-10T15:44:04.986Z,43.16
2023-05-10T15:46:31.634Z,43.63
2023-05-10T15:48:59.216Z,38.94
2023-05-10T15:51:26.147Z,41.26
2023-05-10T15:54:05.731Z,43.19
2023-05-10T15:56:34.290Z,44.14
2023-05-10T15:59:00.758Z,44.48
2023-05-10T16:01:27.476Z,42.80
2023-05-10T16:03:53.974Z,41.63
2023-05-10T16:06:20.447Z,42.50
2023-05-10T16:08:46.919Z,43.08
2023-05-10T16:11:13.378Z,43.13
2023-05-10T16:13:39.878Z,43.39
2023-05-10T16:16:08.976Z,44.24
2023-05-10T16:18:36.090Z,44.73
2023-05-10T16:21:02.677Z,44.68
2023-05-10T16:23:29.289Z,44.76
2023-05-10T16:25:55.768Z,46.67
2023-05-10T16:28:22.251Z,46.55
2023-05-10T16:30:48.966Z,45.88
2023-05-10T16:33:16.763Z,44.97
2023-05-10T16:35:43.659Z,45.74
2023-05-10T16:38:10.170Z,46.41
2023-05-10T16:40:36.656Z,45.70
2023-05-10T16:43:03.572Z,45.71
2023-05-10T16:45:31.963Z,46.78
2023-05-10T16:47:58.495Z,46.66
2023-05-10T16:50:25.013Z,46.83
2023-05-10T16:52:51.452Z,47.14
2023-05-10T16:55:18.071Z,46.37
2023-05-10T16:57:44.972Z,46.61
2023-05-10T17:00:12.364Z,45.95
2023-05-10T17:02:39.356Z,46.12
2023-05-10T17:05:06.118Z,46.72
2023-05-10T17:07:32.604Z,47.63
2023-05-10T17:09:59.415Z,47.20
2023-05-10T17:12:26.048Z,47.03
2023-05-10T17:14:52.601Z,46.44
2023-05-10T17:17:19.283Z,46.84
2023-05-10T17:19:45.863Z,47.49
2023-05-10T17:22:12.665Z,48.82
2023-05-10T17:24:39.108Z,48.88
2023-05-10T17:27:05.739Z,48.53
2023-05-10T17:29:32.580Z,47.45
2023-05-10T17:31:59.453Z,47.92
2023-05-10T17:34:26.060Z,48.08
2023-05-10T17:36:54.274Z,48.88
2023-05-10T17:39:21.357Z,51.72
2023-05-10T17:41:47.853Z,54.35
2023-05-10T17:44:14.390Z,55.82
2023-05-10T17:46:40.857Z,55.52
2023-05-10T17:49:07.491Z,54.62
2023-05-10T17:51:34.274Z,54.04
2023-05-10T17:54:00.760Z,55.41
2023-05-10T17:56:27.379Z,57.05
2023-05-10T17:58:54.273Z,60.42
2023-05-10T18:01:20.988Z,63.07
2023-05-10T18:03:49.319Z,63.43
2023-05-10T18:06:15.858Z,64.29
2023-05-10T18:08:42.388Z,62.20
2023-05-10T18:11:08.881Z,61.66
2023-05-10T18:13:35.350Z,62.28
2023-05-10T18:16:01.864Z,62.91
2023-05-10T18:18:28.451Z,63.83
2023-05-10T18:20:57.802Z,65.16
2023-05-10T18:23:24.693Z,65.04
2023-05-10T18:25:51.793Z,65.19
2023-05-10T18:28:18.542Z,66.52
2023-05-10T18:30:45.415Z,64.04
2023-05-10T18:33:12.124Z,64.52
2023-05-10T18:35:40.184Z,66.49
2023-05-10T18:38:06.982Z,67.62
2023-05-10T18:40:33.471Z,68.34
2023-05-10T18:43:00.017Z,70.22
2023-05-10T18:45:26.477Z,68.36
2023-05-10T18:47:53.029Z,69.08
2023-05-10T18:50:19.834Z,68.98
2023-05-10T18:52:46.716Z,68.67
2023-05-10T18:55:13.472Z,68.90
2023-05-10T18:57:42.766Z,68.91
2023-05-10T19:00:12.852Z,68.44
2023-05-10T19:02:39.895Z,68.44
2023-05-10T19:05:06.904Z,70.88
2023-05-10T19:07:33.688Z,72.59
2023-05-10T19:10:00.311Z,70.77
2023-05-10T19:12:26.850Z,71.03
2023-05-10T19:14:53.312Z,71.36
2023-05-10T19:17:19.766Z,69.32
2023-05-10T19:19:46.219Z,69.63
2023-05-10T19:22:12.686Z,70.24
2023-05-10T19:24:39.268Z,71.50
2023-05-10T19:27:05.745Z,71.60
2023-05-10T19:29:32.383Z,71.95
2023-05-10T19:31:59.090Z,72.34
2023-05-10T19:34:25.705Z,71.67
2023-05-10T19:36:52.274Z,72.10
2023-05-10T19:39:19.572Z,72.50
2023-05-10T19:41:47.662Z,71.98
2023-05-10T19:44:15.385Z,71.66
2023-05-10T19:46:42.211Z,72.01
2023-05-10T19:49:08.806Z,71.83
2023-05-10T19:51:35.359Z,71.70
2023-05-10T19:54:02.086Z,72.07
2023-05-10T19:56:29.668Z,72.76
2023-05-10T19:58:56.248Z,74.09
2023-05-10T20:01:22.752Z,74.40
2023-05-10T20:03:49.314Z,75.91
2023-05-10T20:06:15.932Z,75.29
2023-05-10T20:08:42.435Z,75.41
2023-05-10T20:11:09.050Z,74.89
2023-05-10T20:13:35.580Z,75.57
2023-05-10T20:16:02.529Z,75.29
2023-05-10T20:18:29.139Z,75.15
2023-05-10T20:20:56.163Z,74.74
2023-05-10T20:23:22.750Z,75.44
2023-05-10T20:25:49.470Z,75.56
2023-05-10T20:28:23.091Z,75.18
2023-05-10T20:30:53.943Z,75.05
2023-05-10T20:33:21.050Z,75.16
2023-05-10T20:35:47.545Z,75.59
2023-05-10T20:38:14.218Z,74.54
2023-05-10T20:40:40.825Z,74.82
2023-05-10T20:43:07.289Z,76.21
2023-05-10T20:45:33.901Z,76.54
2023-05-10T20:48:01.197Z,76.53
2023-05-10T20:50:27.896Z,76.84
2023-05-10T20:52:54.421Z,75.48
2023-05-10T20:55:20.976Z,74.82
2023-05-10T20:57:47.471Z,74.67
2023-05-10T21:00:14.459Z,73.84
2023-05-10T21:02:43.348Z,75.38
2023-05-10T21:05:10.129Z,76.79
2023-05-10T21:07:36.720Z,78.36
2023-05-10T21:10:03.280Z,79.92
2023-05-10T21:12:29.738Z,80.74
2023-05-10T21:14:56.209Z,81.11
2023-05-10T21:17:22.652Z,82.28
2023-05-10T21:19:49.095Z,81.87
2023-05-10T21:22:15.632Z,83.47
2023-05-10T21:24:42.128Z,84.02
2023-05-10T21:27:09.017Z,85.15
2023-05-10T21:29:35.530Z,85.56
2023-05-10T21:32:02.058Z,85.82
2023-05-10T21:34:28.967Z,84.69
2023-05-10T21:36:55.402Z,86.00
2023-05-10T21:39:21.861Z,86.38
2023-05-10T21:41:48.341Z,87.75
2023-05-10T21:44:14.844Z,87.94
2023-05-10T21:46:41.301Z,87.02
2023-05-10T21:49:08.224Z,87.31
2023-05-10T21:51:34.689Z,87.77
2023-05-10T21:54:01.586Z,88.15
2023-05-10T21:56:28.070Z,88.29
2023-05-10T21:58:54.766Z,87.98
2023-05-10T22:01:21.277Z,87.77
2023-05-10T22:03:47.793Z,87.80
2023-05-10T22:06:14.285Z,86.26
2023-05-10T22:08:40.854Z,85.94
2023-05-10T22:11:07.286Z,86.90
2023-05-10T22:13:33.758Z,86.63
2023-05-10T22:16:00.591Z,87.25
2023-05-10T22:18:27.170Z,87.61
2023-05-10T22:20:53.681Z,88.11
2023-05-10T22:23:20.273Z,87.73
2023-05-10T22:25:46.759Z,87.58
2023-05-10T22:28:13.206Z,87.60
2023-05-10T22:30:41.270Z,87.63
2023-05-10T22:33:07.724Z,88.40
2023-05-10T22:35:34.226Z,89.53
2023-05-10T22:38:00.742Z,89.69
2023-05-10T22:40:27.406Z,89.55
2023-05-10T22:42:53.856Z,90.86
2023-05-10T22:45:20.519Z,91.28
2023-05-10T22:47:47.269Z,90.32
2023-05-10T22:50:14.280Z,91.53
2023-05-10T22:52:40.800Z,92.05
2023-05-10T22:55:07.486Z,92.85
2023-05-10T22:57:34.246Z,93.82
2023-05-10T23:00:00.904Z,94.28
2023-05-10T23:02:27.419Z,95.28
2023-05-10T23:04:53.888Z,95.35
2023-05-10T23:07:20.510Z,95.87
2023-05-10T23:09:47.014Z,97.49
2023-05-10T23:12:13.487Z,98.14
2023-05-10T23:14:41.469Z,99.00
2023-05-10T23:17:08.275Z,98.28
2023-05-10T23:19:34.726Z,97.86
2023-05-10T23:22:02.887Z,98.13
2023-05-10T23:24:29.834Z,98.71
2023-05-10T23:26:57.296Z,99.21
2023-05-10T23:29:27.087Z,99.48
2023-05-10T23:31:53.981Z,99.43
2023-05-10T23:34:20.465Z,99.88
2023-05-10T23:36:46.929Z,99.28
2023-05-10T23:39:13.537Z,99.08
2023-05-10T23:41:40.025Z,98.82
2023-05-10T23:44:06.591Z,98.95
2023-05-10T23:46:33.097Z,99.49
2023-05-10T23:48:59.604Z,100.00
2023-05-10T23:52:14.500Z,100.00
2023-05-10T23:55:02.331Z,98.07
2023-05-10T23:57:28.824Z,97.37
2023-05-10T23:59:55.441Z,96.71
